Time;durP1;ratioP1;P1;durP2;ratioP2;P2;SDS_P1;SDS_P2;PMS_P1;PMS_P2;Temp;Humidity;BMP_temperature;BMP_pressure;BME280_temperature;BME280_humidity;BME280_pressure;Samples;Min_cycle;Max_cycle;Signal;HPM_P1;HPM_P2
2022/06/05 00:01:36;;;;;;;4.75;2.22;;;;;;;-143.85;100.00;70650.75;5057531;28;20150;-85
2022/06/05 00:04:35;;;;;;;2.30;1.70;;;;;;;-143.85;100.00;70650.75;5054923;28;20032;-84
2022/06/05 00:07:11;;;;;;;5.57;1.88;;;;;;;-143.85;100.00;70650.75;5054856;28;20082;-84
2022/06/05 00:10:00;;;;;;;2.90;2.22;;;;;;;-143.85;100.00;70650.75;5055177;28;20479;-84
2022/06/05 00:12:37;;;;;;;3.58;1.85;;;;;;;-143.85;100.00;70650.75;5067818;28;20411;-83
2022/06/05 00:15:03;;;;;;;3.13;2.33;;;;;;;-143.85;100.00;70650.75;5074361;28;20554;-85
2022/06/05 00:17:29;;;;;;;3.03;2.00;;;;;;;-143.85;100.00;70650.75;5074846;28;20075;-84
2022/06/05 00:19:55;;;;;;;4.10;2.25;;;;;;;-143.85;100.00;70650.75;5073299;28;20457;-85
2022/06/05 00:22:21;;;;;;;3.22;2.30;;;;;;;-143.85;100.00;70650.75;5070636;28;20028;-83
2022/06/05 00:24:47;;;;;;;2.88;2.30;;;;;;;-143.85;100.00;70650.75;5062929;28;20115;-83
2022/06/05 00:27:24;;;;;;;5.88;2.00;;;;;;;-143.85;100.00;70650.75;5071326;28;20162;-85
2022/06/05 00:30:05;;;;;;;9.98;2.42;;;;;;;-143.85;100.00;70650.75;5062928;28;20067;-86
2022/06/05 00:32:45;;;;;;;6.40;2.67;;;;;;;-143.85;100.00;70650.75;5060756;28;20118;-86
2022/06/05 00:35:15;;;;;;;8.18;3.05;;;;;;;-143.85;100.00;70650.75;5057034;28;20024;-85
2022/06/05 00:38:02;;;;;;;2.13;1.92;;;;;;;-143.85;100.00;70650.75;5090140;28;20020;-85
2022/06/05 00:40:38;;;;;;;4.30;2.17;;;;;;;-143.85;100.00;70650.75;5080017;28;20033;-85
2022/06/05 00:43:08;;;;;;;3.83;2.05;;;;;;;-143.85;100.00;70650.75;5054642;28;20029;-85
2022/06/05 00:45:35;;;;;;;3.58;2.95;;;;;;;-143.85;100.00;70650.75;5073938;28;20074;-85
2022/06/05 00:48:01;;;;;;;8.13;2.78;;;;;;;-143.85;100.00;70650.75;5074426;28;20081;-84
2022/06/05 00:50:31;;;;;;;3.80;2.67;;;;;;;-143.85;100.00;70650.75;5076337;28;20076;-82
2022/06/05 00:52:59;;;;;;;2.95;2.42;;;;;;;-143.85;100.00;70650.75;5078335;28;20024;-84
2022/06/05 00:55:27;;;;;;;2.95;2.22;;;;;;;-143.85;100.00;70650.75;5078186;28;20032;-85
2022/06/05 00:57:53;;;;;;;;;;;;;;;-143.85;100.00;70650.75;5077342;28;20089;-85
2022/06/05 01:00:32;;;;;;;4.78;2.63;;;;;;;-143.85;100.00;70650.75;5078207;28;20010;-84
2022/06/05 01:03:01;;;;;;;4.10;2.60;;;;;;;-143.85;100.00;70650.75;5064341;28;20032;-83
2022/06/05 01:05:27;;;;;;;6.30;2.28;;;;;;;-143.85;100.00;70650.75;5075927;28;20025;-85
2022/06/05 01:07:54;;;;;;;2.22;2.03;;;;;;;-143.85;100.00;70650.75;5058730;28;20028;-85
2022/06/05 01:10:22;;;;;;;3.13;2.42;;;;;;;-143.85;100.00;70650.75;5076030;28;20044;-85
2022/06/05 01:12:59;;;;;;;2.72;1.98;;;;;;;-143.85;100.00;70650.75;5076164;28;20459;-85
2022/06/05 01:15:43;;;;;;;3.78;2.47;;;;;;;-143.85;100.00;70650.75;5078040;28;20491;-85
2022/06/05 01:18:11;;;;;;;6.45;2.20;;;;;;;-143.85;100.00;70650.75;5077081;28;20028;-85
2022/06/05 01:20:55;;;;;;;3.10;2.80;;;;;;;-143.85;100.00;70650.75;5057895;28;20170;-85
2022/06/05 01:23:58;;;;;;;2.58;1.63;;;;;;;-143.85;100.00;70650.75;5075894;28;20020;-85
2022/06/05 01:26:38;;;;;;;2.00;1.80;;;;;;;-143.85;100.00;70650.75;5078009;28;20533;-85
2022/06/05 01:29:11;;;;;;;4.28;1.88;;;;;;;-143.85;100.00;70650.75;5060087;28;20068;-85
2022/06/05 01:31:38;;;;;;;2.60;2.08;;;;;;;-143.85;100.00;70650.75;5062491;28;20483;-85
2022/06/05 01:34:04;;;;;;;3.67;2.45;;;;;;;-143.85;100.00;70650.75;5062622;28;20074;-85
2022/06/05 01:36:53;;;;;;;4.50;2.13;;;;;;;-143.85;100.00;70650.75;5065409;28;20043;-85
2022/06/05 01:39:44;;;;;;;2.80;2.10;;;;;;;-143.85;100.00;70650.75;5076749;28;20479;-83
2022/06/05 01:42:15;;;;;;;5.35;2.95;;;;;;;-143.85;100.00;70650.75;5064035;28;20040;-83
2022/06/05 01:44:47;;;;;;;2.35;1.67;;;;;;;-143.85;100.00;70650.75;5075737;28;20056;-84
2022/06/05 01:47:29;;;;;;;3.75;2.60;;;;;;;-143.85;100.00;70650.75;5068480;28;20119;-84
2022/06/05 01:50:00;;;;;;;3.00;2.05;;;;;;;-143.85;100.00;70650.75;5076966;28;20028;-85
2022/06/05 01:52:34;;;;;;;3.35;2.10;;;;;;;-143.85;100.00;70650.75;5076454;28;20087;-86
2022/06/05 01:55:12;;;;;;;6.80;2.60;;;;;;;-143.85;100.00;70650.75;5071987;28;20115;-85
2022/06/05 01:57:38;;;;;;;4.95;3.13;;;;;;;-143.85;100.00;70650.75;5077742;28;20480;-85
2022/06/05 02:00:11;;;;;;;4.43;2.88;;;;;;;-143.85;100.00;70650.75;5094816;28;20050;-85
2022/06/05 02:02:46;;;;;;;5.80;3.13;;;;;;;-143.85;100.00;70650.75;5075342;28;20054;-86
2022/06/05 02:05:17;;;;;;;5.40;2.50;;;;;;;-143.85;100.00;70650.75;5070890;28;20069;-86
2022/06/05 02:07:47;;;;;;;3.47;2.70;;;;;;;-143.85;100.00;70650.75;5057557;28;20117;-86
2022/06/05 02:10:26;;;;;;;3.92;1.67;;;;;;;-143.85;100.00;70650.75;5065723;28;20051;-85
2022/06/05 02:12:58;;;;;;;6.28;2.10;;;;;;;-143.85;100.00;70650.75;5077327;28;20020;-86
2022/06/05 02:15:23;;;;;;;3.85;2.25;;;;;;;-143.85;100.00;70650.75;5084435;28;20036;-86
2022/06/05 02:17:50;;;;;;;9.75;2.53;;;;;;;-143.85;100.00;70650.75;5094224;28;20028;-86
2022/06/05 02:20:16;;;;;;;4.30;2.67;;;;;;;-143.85;100.00;70650.75;5056955;28;20500;-87
2022/06/05 02:22:45;;;;;;;3.47;2.45;;;;;;;-143.85;100.00;70650.75;5061266;28;20036;-86
2022/06/05 02:25:12;;;;;;;9.27;2.58;;;;;;;-143.85;100.00;70650.75;5080016;28;20032;-86
2022/06/05 02:27:38;;;;;;;4.68;2.65;;;;;;;-143.85;100.00;70650.75;5056738;28;20044;-86
2022/06/05 02:30:05;;;;;;;3.13;2.42;;;;;;;-143.85;100.00;70650.75;5074161;28;20071;-87
2022/06/05 02:32:55;;;;;;;2.83;2.50;;;;;;;-143.85;100.00;70650.75;5080634;28;20028;-86
2022/06/05 02:35:59;;;;;;;2.13;1.90;;;;;;;-143.85;100.00;70650.75;5067562;28;20039;-85
2022/06/05 02:38:43;;;;;;;2.20;2.00;;;;;;;-143.85;100.00;70650.75;5045596;28;20097;-84
2022/06/05 02:41:29;;;;;;;2.03;1.77;;;;;;;-143.85;100.00;70650.75;5069320;28;20031;-84
2022/06/05 02:44:29;;;;;;;7.72;2.35;;;;;;;-143.85;100.00;70650.75;5044307;28;20564;-84
2022/06/05 02:47:16;;;;;;;3.20;2.40;;;;;;;-143.85;100.00;70650.75;5056369;28;20035;-84
2022/06/05 02:49:48;;;;;;;5.65;2.33;;;;;;;-143.85;100.00;70650.75;5070907;28;20039;-84
2022/06/05 02:52:14;;;;;;;3.47;2.28;;;;;;;-143.85;100.00;70650.75;5076387;28;20028;-84
2022/06/05 02:54:45;;;;;;;9.35;2.65;;;;;;;-143.85;100.00;70650.75;5075557;28;20032;-84
2022/06/05 02:57:13;;;;;;;4.30;2.50;;;;;;;-143.85;100.00;70650.75;5075706;28;20352;-85
2022/06/05 02:59:38;;;;;;;3.38;2.28;;;;;;;-143.85;100.00;70650.75;5087536;28;20126;-85
2022/06/05 03:04:48;;;;;;;4.13;2.40;;;;;;;-143.85;100.00;70650.75;5093723;28;20461;-84
2022/06/05 03:07:14;;;;;;;3.75;2.92;;;;;;;-143.85;100.00;70650.75;5075689;28;20024;-84
2022/06/05 03:09:40;;;;;;;2.97;2.25;;;;;;;-143.85;100.00;70650.75;5075396;28;20056;-84
2022/06/05 03:12:05;;;;;;;7.00;2.33;;;;;;;-143.85;100.00;70650.75;5065665;28;20024;-84
2022/06/05 03:14:31;;;;;;;5.40;2.70;;;;;;;-143.85;100.00;70650.75;5075137;28;20119;-84
2022/06/05 03:16:56;;;;;;;5.70;2.75;;;;;;;-143.85;100.00;70650.75;5075984;28;20492;-85
2022/06/05 03:19:22;;;;;;;3.45;2.80;;;;;;;-143.85;100.00;70650.75;5075310;28;20044;-85
2022/06/05 03:21:47;;;;;;;3.75;2.40;;;;;;;-143.85;100.00;70650.75;5070730;28;20408;-84
2022/06/05 03:24:14;;;;;;;4.22;2.45;;;;;;;-143.85;100.00;70650.75;5075292;28;20016;-84
2022/06/05 03:26:39;;;;;;;3.95;3.10;;;;;;;-143.85;100.00;70650.75;5075122;28;20055;-84
2022/06/05 03:29:07;;;;;;;4.13;2.42;;;;;;;-143.85;100.00;70650.75;5074673;28;20101;-85
2022/06/05 03:31:34;;;;;;;5.07;2.70;;;;;;;-143.85;100.00;70650.75;5075493;28;20039;-85
2022/06/05 03:34:00;;;;;;;4.25;3.15;;;;;;;-143.85;100.00;70650.75;5075289;28;20028;-85
2022/06/05 03:36:25;;;;;;;2.17;1.98;;;;;;;-143.85;100.00;70650.75;5092874;28;20035;-84
2022/06/05 03:38:51;;;;;;;7.93;3.45;;;;;;;-143.85;100.00;70650.75;5074991;28;20043;-86
2022/06/05 03:41:17;;;;;;;4.05;2.20;;;;;;;-143.85;100.00;70650.75;5075128;28;20032;-86
2022/06/05 03:43:43;;;;;;;3.53;2.40;;;;;;;-143.85;100.00;70650.75;5071078;28;20481;-87
2022/06/05 03:46:12;;;;;;;1.90;1.75;;;;;;;-143.85;100.00;70650.75;5065725;28;20032;-86
2022/06/05 03:48:38;;;;;;;3.17;2.30;;;;;;;-143.85;100.00;70650.75;5075232;28;20056;-86
2022/06/05 03:51:19;;;;;;;6.75;2.00;;;;;;;-143.85;100.00;70650.75;5092117;28;20032;-86
2022/06/05 03:53:45;;;;;;;3.50;2.20;;;;;;;-143.85;100.00;70650.75;5088505;28;20537;-86
2022/06/05 03:56:12;;;;;;;2.40;1.83;;;;;;;-143.85;100.00;70650.75;5093111;28;20088;-86
2022/06/05 03:58:37;;;;;;;3.53;1.80;;;;;;;-143.85;100.00;70650.75;5074730;28;20478;-87
2022/06/05 04:01:06;;;;;;;3.00;2.25;;;;;;;-143.85;100.00;70650.75;5075483;28;20031;-86
2022/06/05 04:03:32;;;;;;;2.45;2.05;;;;;;;-143.85;100.00;70650.75;5071604;28;20028;-84
2022/06/05 04:05:57;;;;;;;2.33;1.80;;;;;;;-143.85;100.00;70650.75;5054685;28;20457;-83
2022/06/05 04:08:23;;;;;;;1.52;1.40;;;;;;;-143.85;100.00;70650.75;5058579;28;20389;-84
2022/06/05 04:10:48;;;;;;;1.85;1.70;;;;;;;-143.85;100.00;70650.75;5073581;28;20035;-84
2022/06/05 04:13:13;;;;;;;3.20;2.50;;;;;;;-143.85;100.00;70650.75;5057562;28;20081;-83
2022/06/05 04:15:39;;;;;;;2.55;1.40;;;;;;;-143.85;100.00;70650.75;5074429;28;20028;-84
2022/06/05 04:18:05;;;;;;;3.47;2.05;;;;;;;-143.85;100.00;70650.75;5074462;28;20028;-84
2022/06/05 04:20:32;;;;;;;3.35;2.50;;;;;;;-143.85;100.00;70650.75;5074022;28;20062;-84
2022/06/05 04:22:58;;;;;;;4.25;1.75;;;;;;;-143.85;100.00;70650.75;5091740;28;20025;-85
2022/06/05 04:25:24;;;;;;;1.88;1.40;;;;;;;-143.85;100.00;70650.75;5078144;28;20388;-85
2022/06/05 04:27:51;;;;;;;2.47;1.38;;;;;;;-143.85;100.00;70650.75;5060704;28;20028;-84
2022/06/05 04:30:16;;;;;;;3.75;1.73;;;;;;;-143.85;100.00;70650.75;5077285;28;20028;-86
2022/06/05 04:32:42;;;;;;;1.52;1.42;;;;;;;-143.85;100.00;70650.75;5058722;28;20036;-87
2022/06/05 04:35:08;;;;;;;2.88;1.80;;;;;;;-143.85;100.00;70650.75;5077426;28;20034;-87
2022/06/05 04:37:33;;;;;;;2.38;1.15;;;;;;;-143.85;100.00;70650.75;5090167;28;20365;-86
2022/06/05 04:39:59;;;;;;;1.48;1.38;;;;;;;-143.85;100.00;70650.75;5059343;28;20102;-87
2022/06/05 04:42:24;;;;;;;3.13;1.75;;;;;;;-143.85;100.00;70650.75;5076859;28;20487;-88
2022/06/05 04:44:50;;;;;;;3.15;1.50;;;;;;;-143.85;100.00;70650.75;5075783;28;20036;-87
2022/06/05 04:47:15;;;;;;;3.28;1.95;;;;;;;-143.85;100.00;70650.75;5058718;28;20487;-87
2022/06/05 04:49:41;;;;;;;3.80;1.58;;;;;;;-143.85;100.00;70650.75;5076712;28;20507;-86
2022/06/05 04:52:06;;;;;;;1.35;1.25;;;;;;;-143.85;100.00;70650.75;5072515;28;20453;-87
2022/06/05 04:54:32;;;;;;;4.53;1.67;;;;;;;-143.85;100.00;70650.75;5063466;28;20069;-87
2022/06/05 04:56:57;;;;;;;1.63;1.40;;;;;;;-143.85;100.00;70650.75;5076514;28;20024;-87
2022/06/05 04:59:23;;;;;;;2.33;1.40;;;;;;;-143.85;100.00;70650.75;5075254;28;20066;-87
2022/06/05 05:01:48;;;;;;;1.70;1.50;;;;;;;-143.85;100.00;70650.75;5077430;28;20025;-87
2022/06/05 05:04:14;;;;;;;1.23;1.13;;;;;;;-143.85;100.00;70650.75;5058261;28;20464;-87
2022/06/05 05:06:42;;;;;;;3.28;1.70;;;;;;;-143.85;100.00;70650.75;5058354;28;20024;-86
2022/06/05 05:09:08;;;;;;;8.90;1.80;;;;;;;-143.85;100.00;70650.75;5069404;28;20048;-86
2022/06/05 05:11:35;;;;;;;2.47;1.38;;;;;;;-143.85;100.00;70650.75;5062781;28;20024;-86
2022/06/05 05:14:01;;;;;;;1.70;1.55;;;;;;;-143.85;100.00;70650.75;5057892;28;20036;-91
2022/06/05 05:16:28;;;;;;;3.17;1.77;;;;;;;-143.85;100.00;70650.75;5066083;28;20027;-89
2022/06/05 05:18:55;;;;;;;1.67;1.40;;;;;;;-143.85;100.00;70650.75;5079432;28;20027;-88
2022/06/05 05:21:22;;;;;;;2.47;1.73;;;;;;;-143.85;100.00;70650.75;5081324;28;20020;-86
2022/06/05 05:23:49;;;;;;;2.80;2.03;;;;;;;-143.85;100.00;70650.75;5077878;28;20032;-87
2022/06/05 05:26:21;;;;;;;1.83;1.50;;;;;;;-143.85;100.00;70650.75;5075247;28;20111;-86
2022/06/05 05:28:47;;;;;;;4.65;1.90;;;;;;;-143.85;100.00;70650.75;5073257;28;20135;-88
2022/06/05 05:31:17;;;;;;;1.55;1.40;;;;;;;-143.85;100.00;70650.75;5077363;28;20028;-85
2022/06/05 05:33:43;;;;;;;1.48;1.30;;;;;;;-143.85;100.00;70650.75;5078586;28;20131;-86
2022/06/05 05:36:09;;;;;;;2.00;1.75;;;;;;;-143.85;100.00;70650.75;5076792;28;20066;-86
2022/06/05 05:38:36;;;;;;;4.80;1.73;;;;;;;-143.85;100.00;70650.75;5077513;28;20080;-85
2022/06/05 05:43:47;;;;;;;1.90;1.38;;;;;;;-143.85;100.00;70650.75;5045183;28;20041;-87
2022/06/05 05:46:15;;;;;;;1.85;1.58;;;;;;;-143.85;100.00;70650.75;5066756;28;20027;-88
2022/06/05 05:48:41;;;;;;;5.45;1.90;;;;;;;-143.85;100.00;70650.75;5071925;28;20032;-88
2022/06/05 05:51:11;;;;;;;2.20;1.50;;;;;;;-143.85;100.00;70650.75;5077529;28;20460;-87
2022/06/05 05:53:37;;;;;;;2.03;1.45;;;;;;;-143.85;100.00;70650.75;5077264;28;20035;-87
2022/06/05 05:56:12;;;;;;;2.20;1.60;;;;;;;-143.85;100.00;70650.75;5076693;28;20059;-87
2022/06/05 05:58:39;;;;;;;3.72;1.48;;;;;;;-143.85;100.00;70650.75;5077525;28;20495;-88
2022/06/05 06:01:07;;;;;;;8.77;2.13;;;;;;;-143.85;100.00;70650.75;5077092;28;20089;-87
2022/06/05 06:03:33;;;;;;;3.50;2.33;;;;;;;-143.85;100.00;70650.75;5060595;28;20036;-88
2022/06/05 06:06:00;;;;;;;2.60;1.58;;;;;;;-143.85;100.00;70650.75;5077148;28;20020;-87
2022/06/05 06:08:26;;;;;;;1.83;1.10;;;;;;;-143.85;100.00;70650.75;5076986;28;20032;-87
2022/06/05 06:10:51;;;;;;;1.63;1.23;;;;;;;-143.85;100.00;70650.75;5077385;28;20046;-88
2022/06/05 06:13:16;;;;;;;4.80;2.10;;;;;;;-143.85;100.00;70650.75;5076765;28;20024;-88
2022/06/05 06:15:43;;;;;;;2.03;1.87;;;;;;;-143.85;100.00;70650.75;5071423;28;20032;-88
2022/06/05 06:18:08;;;;;;;2.03;1.60;;;;;;;-143.85;100.00;70650.75;5062371;28;20051;-86
2022/06/05 06:20:34;;;;;;;2.30;1.50;;;;;;;-143.85;100.00;70650.75;5077843;28;20114;-96
2022/06/05 06:22:59;;;;;;;6.97;1.80;;;;;;;-143.85;100.00;70650.75;5067433;28;20036;-94
2022/06/05 06:25:25;;;;;;;2.00;1.33;;;;;;;-143.85;100.00;70650.75;5380121;22;20063;-96
2022/06/05 06:27:51;;;;;;;1.43;1.23;;;;;;;-143.85;100.00;70650.75;5080236;28;20504;-92
2022/06/05 06:30:17;;;;;;;3.20;1.47;;;;;;;-143.85;100.00;70650.75;5053674;28;20031;-88
2022/06/05 06:32:42;;;;;;;2.70;1.47;;;;;;;-143.85;100.00;70650.75;5053695;28;20515;-86
2022/06/05 06:35:08;;;;;;;1.93;1.77;;;;;;;-143.85;100.00;70650.75;5070565;28;20029;-85
2022/06/05 06:37:34;;;;;;;3.60;2.07;;;;;;;-143.85;100.00;70650.75;5069731;28;20116;-84
2022/06/05 06:39:59;;;;;;;1.80;1.70;;;;;;;-143.85;100.00;70650.75;5078065;28;20842;-85
2022/06/05 06:42:25;;;;;;;5.33;1.40;;;;;;;-143.85;100.00;70650.75;5067233;28;20054;-86
2022/06/05 06:44:50;;;;;;;1.43;1.30;;;;;;;-143.85;100.00;70650.75;5071764;28;20017;-85
2022/06/05 06:47:16;;;;;;;2.60;1.80;;;;;;;-143.85;100.00;70650.75;5071629;28;20025;-85
2022/06/05 06:49:41;;;;;;;5.53;1.90;;;;;;;-143.85;100.00;70650.75;5054966;28;20415;-85
2022/06/05 06:52:06;;;;;;;3.83;1.50;;;;;;;-143.85;100.00;70650.75;5052775;28;20029;-86
2022/06/05 06:54:32;;;;;;;4.33;1.77;;;;;;;-143.85;100.00;70650.75;5069117;28;20029;-86
2022/06/05 06:56:57;;;;;;;2.53;1.70;;;;;;;-143.85;100.00;70650.75;5069408;28;20025;-89
2022/06/05 06:59:24;;;;;;;6.90;5.90;;;;;;;-143.85;100.00;70650.75;5053536;28;20448;-87
2022/06/05 07:01:50;;;;;;;3.95;2.40;;;;;;;-143.85;100.00;70650.75;5053388;28;20047;-87
2022/06/05 07:04:17;;;;;;;2.50;1.53;;;;;;;-143.85;100.00;70650.75;5069411;28;20473;-91
2022/06/05 07:06:42;;;;;;;;;;;;;;;-143.85;100.00;70650.75;5091388;28;20060;-94
2022/06/05 07:09:08;;;;;;;1.95;1.45;;;;;;;-143.85;100.00;70650.75;5069472;28;19920;-90
2022/06/05 07:11:34;;;;;;;7.37;1.70;;;;;;;-143.85;100.00;70650.75;5088736;28;20054;-89
2022/06/05 07:13:59;;;;;;;3.27;1.63;;;;;;;-143.85;100.00;70650.75;5071159;28;20025;-89
2022/06/05 07:16:25;;;;;;;2.33;1.13;;;;;;;-143.85;100.00;70650.75;5053838;28;20016;-89
2022/06/05 07:19:00;;;;;;;3.07;1.90;;;;;;;-143.85;100.00;70650.75;5066671;28;20025;-91
2022/06/05 07:21:26;;;;;;;2.53;1.63;;;;;;;-143.85;100.00;70650.75;5050533;28;20034;-92
2022/06/05 07:23:52;;;;;;;1.70;1.50;;;;;;;-143.85;100.00;70650.75;5048906;28;20025;-92
2022/06/05 07:26:21;;;;;;;2.08;1.73;;;;;;;-143.85;100.00;70650.75;5037839;28;20723;-90
2022/06/05 07:28:47;;;;;;;4.32;2.40;;;;;;;-143.85;100.00;70650.75;5052037;28;20029;-86
2022/06/05 07:31:14;;;;;;;1.50;1.40;;;;;;;-143.85;100.00;70650.75;5063340;28;20385;-96
2022/06/05 07:33:43;;;;;;;4.63;2.00;;;;;;;-143.85;100.00;70650.75;5062775;28;20083;-96
2022/06/05 07:36:12;;;;;;;4.22;2.15;;;;;;;-143.85;100.00;70650.75;5076708;28;20021;-95
2022/06/05 07:38:39;;;;;;;1.67;1.58;;;;;;;-143.85;100.00;70650.75;5076345;28;20025;-95
2022/06/05 07:41:07;;;;;;;2.35;1.92;;;;;;;-143.85;100.00;70650.75;5057404;28;20084;-95
2022/06/05 07:43:33;;;;;;;5.00;2.60;;;;;;;-143.85;100.00;70650.75;5054322;28;20068;-93
2022/06/05 07:46:05;;;;;;;3.22;1.80;;;;;;;-143.85;100.00;70650.75;5053877;28;20024;-94
2022/06/05 07:48:31;;;;;;;3.53;1.70;;;;;;;-143.85;100.00;70650.75;5056187;28;20036;-95
2022/06/05 07:56:38;;;;;;;1.88;1.63;;;;;;;-143.85;100.00;70650.75;5054969;28;20587;-90
2022/06/05 07:59:03;;;;;;;2.22;1.50;;;;;;;-143.85;100.00;70650.75;5052725;28;20048;-89
2022/06/05 08:01:29;;;;;;;4.43;2.17;;;;;;;-143.85;100.00;70650.75;5052217;28;20025;-88
2022/06/05 08:03:54;;;;;;;4.15;2.53;;;;;;;-143.85;100.00;70650.75;5068613;28;20087;-90
2022/06/05 08:06:20;;;;;;;9.40;2.13;;;;;;;-143.85;100.00;70650.75;5051774;28;20028;-88
2022/06/05 08:08:46;;;;;;;4.72;1.60;;;;;;;-143.85;100.00;70650.75;5053244;28;20396;-90
2022/06/05 08:11:12;;;;;;;3.10;1.80;;;;;;;-143.85;100.00;70650.75;5069777;28;20057;-90
2022/06/05 08:13:38;;;;;;;2.78;2.10;;;;;;;-143.85;100.00;70650.75;5066629;28;20515;-93
2022/06/05 08:16:04;;;;;;;3.40;2.13;;;;;;;-143.85;100.00;70650.75;5054107;28;20029;-96
2022/06/05 08:18:29;;;;;;;1.85;1.67;;;;;;;-143.85;100.00;70650.75;5054201;28;20025;-90
2022/06/05 08:20:55;;;;;;;2.35;2.15;;;;;;;-143.85;100.00;70650.75;5069394;28;20036;-93
2022/06/05 08:23:22;;;;;;;3.45;1.92;;;;;;;-143.85;100.00;70650.75;5053457;28;20033;-96
2022/06/05 08:25:47;;;;;;;2.08;1.75;;;;;;;-143.85;100.00;70650.75;5051530;28;20075;-92
2022/06/05 08:28:14;;;;;;;3.38;2.00;;;;;;;-143.85;100.00;70650.75;5046815;28;20024;-87
2022/06/05 08:30:40;;;;;;;4.17;1.97;;;;;;;-143.85;100.00;70650.75;5046431;28;20029;-86
2022/06/05 08:33:05;;;;;;;2.53;1.77;;;;;;;-143.85;100.00;70650.75;5041594;28;20041;-87
2022/06/05 08:35:31;;;;;;;3.70;2.00;;;;;;;-143.85;100.00;70650.75;5045886;28;20024;-87
2022/06/05 08:44:05;;;;;;;4.20;1.40;;;;;;;-143.85;100.00;70650.75;5051514;28;20068;-84
2022/06/05 08:46:40;;;;;;;2.25;1.88;;;;;;;-143.85;100.00;70650.75;5039332;28;20098;-84
2022/06/05 08:49:14;;;;;;;1.92;1.27;;;;;;;-143.85;100.00;70650.75;5050796;28;20036;-87
2022/06/05 08:51:47;;;;;;;3.53;1.30;;;;;;;-143.85;100.00;70650.75;5051287;28;20028;-88
2022/06/05 08:54:21;;;;;;;2.35;1.23;;;;;;;-143.85;100.00;70650.75;5068225;28;20032;-89
2022/06/05 08:56:53;;;;;;;3.05;1.95;;;;;;;-143.85;100.00;70650.75;5051490;28;20033;-90
2022/06/05 08:59:30;;;;;;;1.92;1.50;;;;;;;-143.85;100.00;70650.75;5050669;28;20037;-88
2022/06/05 09:02:13;;;;;;;2.00;1.80;;;;;;;-143.85;100.00;70650.75;5059365;28;20025;-87
2022/06/05 09:04:53;;;;;;;1.52;1.25;;;;;;;-143.85;100.00;70650.75;5050595;28;20524;-86
2022/06/05 09:07:28;;;;;;;2.45;1.63;;;;;;;-143.85;100.00;70650.75;5067640;28;20033;-85
2022/06/05 09:10:10;;;;;;;1.52;1.30;;;;;;;-143.85;100.00;70650.75;5051022;28;20420;-87
2022/06/05 09:12:38;;;;;;;3.53;1.10;;;;;;;-143.85;100.00;70650.75;5055702;28;20031;-88
2022/06/05 09:15:21;;;;;;;1.58;1.33;;;;;;;-143.85;100.00;70650.75;5054731;28;20032;-90
2022/06/05 09:17:54;;;;;;;1.02;0.98;;;;;;;-143.85;100.00;70650.75;5069455;28;20128;-89
2022/06/05 09:20:31;;;;;;;3.03;0.90;;;;;;;-143.85;100.00;70650.75;5054410;28;20025;-82
2022/06/05 09:23:04;;;;;;;0.65;0.65;;;;;;;-143.85;100.00;70650.75;5054747;28;20029;-85
2022/06/05 09:25:39;;;;;;;3.40;0.77;;;;;;;-143.85;100.00;70650.75;5055852;28;20079;-86
2022/06/05 09:28:50;;;;;;;1.13;0.85;;;;;;;-143.85;100.00;70650.75;5055400;28;20064;-85
2022/06/05 09:31:24;;;;;;;1.23;1.13;;;;;;;-143.85;100.00;70650.75;4974577;28;20030;-85
2022/06/05 09:33:54;;;;;;;1.23;1.13;;;;;;;-143.85;100.00;70650.75;4957897;28;20545;-87
2022/06/05 09:36:23;;;;;;;2.25;1.00;;;;;;;-143.85;100.00;70650.75;5013830;28;20037;-85
2022/06/05 09:38:54;;;;;;;1.40;0.90;;;;;;;-143.85;100.00;70650.75;5054110;28;20052;-88
2022/06/05 09:41:37;;;;;;;3.20;1.10;;;;;;;-143.85;100.00;70650.75;5054559;28;20119;-87
2022/06/05 09:44:26;;;;;;;5.00;1.08;;;;;;;-143.85;100.00;70650.75;5050732;28;20029;-89
2022/06/05 09:47:09;;;;;;;1.48;1.10;;;;;;;-143.85;100.00;70650.75;5051161;28;20025;-87
2022/06/05 09:49:37;;;;;;;1.17;0.85;;;;;;;-143.85;100.00;70650.75;5051240;28;20572;-87
2022/06/05 09:52:26;;;;;;;1.10;0.90;;;;;;;-143.85;100.00;70650.75;5052209;28;20035;-87
2022/06/05 09:55:14;;;;;;;1.15;1.00;;;;;;;-143.85;100.00;70650.75;5055183;28;20492;-89
2022/06/05 10:00:43;;;;;;;2.15;1.30;;;;;;;-143.85;100.00;70650.75;5055321;28;20043;-87
2022/06/05 10:03:16;;;;;;;1.65;1.05;;;;;;;-143.85;100.00;70650.75;5053817;28;20029;-88
2022/06/05 10:05:47;;;;;;;2.03;1.00;;;;;;;-143.85;100.00;70650.75;5048976;28;20036;-86
2022/06/05 10:08:23;;;;;;;1.30;0.90;;;;;;;-143.85;100.00;70650.75;5054053;28;20036;-87
2022/06/05 10:10:53;;;;;;;3.00;1.45;;;;;;;-143.85;100.00;70650.75;5054664;28;20041;-85
2022/06/05 10:13:45;;;;;;;1.08;0.70;;;;;;;-143.85;100.00;70650.75;5070829;28;20050;-88
2022/06/05 10:16:27;;;;;;;1.67;0.73;;;;;;;-143.85;100.00;70650.75;5062477;28;20021;-88
2022/06/05 10:18:58;;;;;;;1.67;1.20;;;;;;;-143.85;100.00;70650.75;5039766;28;20065;-87
2022/06/05 10:21:35;;;;;;;1.25;1.10;;;;;;;-143.85;100.00;70650.75;5033565;28;20022;-86
2022/06/05 10:24:03;;;;;;;1.73;0.90;;;;;;;-143.85;100.00;70650.75;5043320;28;20036;-86
2022/06/05 10:26:39;;;;;;;3.42;1.42;;;;;;;-143.85;100.00;70650.75;5067252;28;20386;-86
2022/06/05 10:29:26;;;;;;;3.33;1.45;;;;;;;-143.85;100.00;70650.75;5070110;28;20060;-90
2022/06/05 10:32:00;;;;;;;5.80;1.25;;;;;;;-143.85;100.00;70650.75;5070686;28;20032;-91
2022/06/05 10:34:38;;;;;;;1.67;0.90;;;;;;;-143.85;100.00;70650.75;5043094;28;20095;-85
2022/06/05 10:37:19;;;;;;;1.30;1.20;;;;;;;-143.85;100.00;70650.75;5041994;28;20029;-91
2022/06/05 10:40:08;;;;;;;1.33;1.10;;;;;;;-143.85;100.00;70650.75;5069643;28;20021;-89
2022/06/05 10:42:55;;;;;;;1.38;1.20;;;;;;;-143.85;100.00;70650.75;5070026;28;20033;-86
2022/06/05 10:45:44;;;;;;;1.08;0.93;;;;;;;-143.85;100.00;70650.75;5068451;28;20030;-93
2022/06/05 10:48:19;;;;;;;0.98;0.82;;;;;;;-143.85;100.00;70650.75;5053260;28;20029;-85
2022/06/05 10:54:27;;;;;;;0.80;0.80;;;;;;;-143.85;100.00;70650.75;5058445;28;20132;-85
2022/06/05 10:57:16;;;;;;;1.10;1.00;;;;;;;-143.85;100.00;70650.75;5068950;28;20113;-85
2022/06/05 11:00:00;;;;;;;3.28;1.23;;;;;;;-143.85;100.00;70650.75;5069664;28;20480;-96
2022/06/05 11:02:53;;;;;;;1.33;1.00;;;;;;;-143.85;100.00;70650.75;5070184;28;20024;-93
2022/06/05 11:05:27;;;;;;;1.50;1.05;;;;;;;-143.85;100.00;70650.75;5069885;28;20123;-94
2022/06/05 11:08:07;;;;;;;1.38;1.10;;;;;;;-143.85;100.00;70650.75;5070048;28;20033;-94
2022/06/05 11:13:47;;;;;;;1.30;1.05;;;;;;;-143.85;100.00;70650.75;5054315;28;20028;-96
2022/06/05 11:16:23;;;;;;;1.10;0.90;;;;;;;-143.85;100.00;70650.75;5069697;28;20029;-93
2022/06/05 11:19:17;;;;;;;1.83;0.80;;;;;;;-143.85;100.00;70650.75;5054034;28;20037;-94
2022/06/05 11:21:46;;;;;;;1.08;1.00;;;;;;;-143.85;100.00;70650.75;5052866;28;20051;-91
2022/06/05 11:24:34;;;;;;;1.10;1.00;;;;;;;-143.85;100.00;70650.75;5069467;28;20080;-93
2022/06/05 11:27:37;;;;;;;4.43;1.10;;;;;;;-143.85;100.00;70650.75;5052545;28;20049;-93
2022/06/05 11:30:16;;;;;;;0.95;0.80;;;;;;;-143.85;100.00;70650.75;5052905;28;20488;-93
2022/06/05 11:32:58;;;;;;;0.80;0.80;;;;;;;-143.85;100.00;70650.75;5069363;28;20033;-94
2022/06/05 11:35:37;;;;;;;2.90;1.33;;;;;;;-143.85;100.00;70650.75;5052194;28;20020;-94
2022/06/05 11:38:11;;;;;;;1.20;1.05;;;;;;;-143.85;100.00;70650.75;5068791;28;20041;-93
2022/06/05 11:40:58;;;;;;;1.90;1.35;;;;;;;-143.85;100.00;70650.75;5053660;28;20025;-93
2022/06/05 11:43:29;;;;;;;2.15;1.30;;;;;;;-143.85;100.00;70650.75;5069510;28;20031;-96
2022/06/05 11:46:00;;;;;;;2.60;1.30;;;;;;;-143.85;100.00;70650.75;5053245;28;20021;-95
2022/06/05 11:48:41;;;;;;;2.10;1.10;;;;;;;-143.85;100.00;70650.75;5069179;28;20064;-94
2022/06/05 11:51:09;;;;;;;0.98;0.93;;;;;;;-143.85;100.00;70650.75;5069227;28;20471;-92
2022/06/05 11:53:41;;;;;;;1.40;1.30;;;;;;;-143.85;100.00;70650.75;5068809;28;20465;-94
2022/06/05 11:56:18;;;;;;;1.30;1.08;;;;;;;-143.85;100.00;70650.75;5068835;28;20025;-93